Accueil
METAR-TAF:

METAR-TAF

Aéroports :

Aéroport international de Banja Luka

Banja Luka, Bosnie-Herzégovine

latitude: 44-47N, longitude: 017-13E, altitude: 156 m

Observation

Le bulletin a été fait il y a 33 minutes, à 07:00 UTC
Vent 2 kt de sud
Température -1°C
Humidité 86%
Pression 1022 hPa
Visibilité 10 km ou plus
pas de nuages en-dessous de 1500 mètres et pas de cumulonimbus.

METAR: LQBK 210700Z 17002KT CAVOK M01/M03 Q1022 NOSIG

Heure: 08:33 (07:33 UTC)

Prévision

Le bulletin a été fait il y a 2 heures et 33 minutes, à 05:00 UTC
Prévision valable du 21 à 06 UTC au 22 à 06 UTC
Vent 5 kt de sud
Visibilité 10 km ou plus
pas de nuages en-dessous de 1500 mètres et pas de cumulonimbus.
Temporairement
du 21 à 11 UTC au 21 à 19 UTC
Vent 12 kt de nord/nord-ouest

TAF: LQBK 210500Z 2106/2206 17005KT CAVOK TX12/2113Z TNM02/2206Z TEMPO 2111/2119 34012KT

Observations et prévisions météorologiques de plus de 4000 aéroports (messages METAR et TAF).

Les stations disponibles sont représentées par des disques jaunes et rouges sur la carte.

Passer la souris dessus pour voir le nom de la station.

Cliquer dessus pour voir les observations et prévisions météorologiques.

Pour changer de carte: cliquez sur les boutons verts avec une croix noire pour zoomer, sur le bouton vert avec un tiret pour effectuer un zoom arrière, ou sur les flèches vertes pour les cartes adjacentes.


METAR-TAF: